Time;durP1;ratioP1;P1;durP2;ratioP2;P2;SDS_P1;SDS_P2;PMS_P1;PMS_P2;Temp;Humidity;BMP_temperature;BMP_pressure;BME280_temperature;BME280_humidity;BME280_pressure;Samples;Min_cycle;Max_cycle;Signal;HPM_P1;HPM_P2
2022/08/26 00:00:26;;;;;;;;;6.00;6.00;;;;;24.01;54.38;101301.97;5099853;27;45295;-52
2022/08/26 00:02:51;;;;;;;;;4.00;4.00;;;;;24.04;54.96;101317.84;5100092;27;45397;-52
2022/08/26 00:05:16;;;;;;;;;5.00;5.00;;;;;24.02;54.66;101311.81;5099725;27;46020;-52
2022/08/26 00:07:42;;;;;;;;;4.25;4.25;;;;;23.87;54.83;101284.13;5099888;27;45419;-53
2022/08/26 00:10:08;;;;;;;;;8.50;5.25;;;;;23.94;54.88;101309.38;5099958;27;45256;-52
2022/08/26 00:12:33;;;;;;;;;3.75;3.75;;;;;23.91;54.75;101309.81;5099808;27;45873;-51
2022/08/26 00:14:59;;;;;;;;;5.50;4.50;;;;;23.90;54.71;101297.28;5099463;27;46279;-51
2022/08/26 00:17:25;;;;;;;;;5.00;4.40;;;;;23.87;55.63;101303.97;5099774;27;45265;-52
2022/08/26 00:19:50;;;;;;;;;6.25;4.50;;;;;23.87;55.49;101312.13;5099365;27;45237;-53
2022/08/26 00:22:15;;;;;;;;;1.25;1.25;;;;;23.89;55.18;101301.03;5100021;27;45379;-53
2022/08/26 00:24:41;;;;;;;;;5.75;5.75;;;;;23.90;55.05;101302.72;5099304;27;46015;-53
2022/08/26 00:27:07;;;;;;;;;3.00;3.00;;;;;23.95;55.58;101315.63;5099417;27;45254;-53
2022/08/26 00:29:33;;;;;;;;;5.75;3.50;;;;;23.96;55.15;101317.28;5099477;27;45304;-52
2022/08/26 00:31:59;;;;;;;;;4.20;4.20;;;;;23.93;55.37;101321.28;5099488;27;45343;-53
2022/08/26 00:34:24;;;;;;;;;4.00;4.00;;;;;23.92;55.18;101318.78;5099111;27;46324;-52
2022/08/26 00:36:50;;;;;;;;;3.00;3.00;;;;;23.88;54.96;101315.69;5099260;27;45242;-52
2022/08/26 00:39:16;;;;;;;;;4.20;4.20;;;;;23.74;55.24;101308.69;5099153;27;45364;-52
2022/08/26 00:41:41;;;;;;;;;7.25;4.50;;;;;23.68;56.09;101299.53;5081246;27;45386;-53
2022/08/26 00:44:09;;;;;;;;;5.00;5.00;;;;;23.80;55.54;101319.50;5098997;27;45322;-53
2022/08/26 00:46:40;;;;;;;;;5.20;4.00;;;;;23.80;55.94;101324.09;5098975;27;45280;-55
2022/08/26 00:49:12;;;;;;;;;5.00;4.20;;;;;23.80;55.73;101324.94;5099317;27;45345;-55
2022/08/26 00:51:45;;;;;;;;;5.00;5.00;;;;;23.80;55.88;101324.94;5099355;27;45320;-54
2022/08/26 00:54:11;;;;;;;;;4.60;4.60;;;;;23.85;55.57;101333.28;5098657;27;45447;-53
2022/08/26 00:56:42;;;;;;;;;4.80;4.80;;;;;23.85;55.70;101327.84;5098911;27;45401;-55
2022/08/26 00:59:10;;;;;;;;;4.80;4.80;;;;;23.82;56.05;101328.28;5099118;27;45526;-55
2022/08/26 01:01:36;;;;;;;;;6.20;4.40;;;;;23.82;56.49;101338.31;5099048;27;45374;-54
2022/08/26 01:04:03;;;;;;;;;4.60;4.00;;;;;23.77;54.89;101319.13;5098825;27;45257;-54
2022/08/26 01:06:28;;;;;;;;;7.60;5.60;;;;;23.77;56.20;101327.28;5098759;27;45370;-54
2022/08/26 01:08:54;;;;;;;;;5.00;3.75;;;;;23.71;56.16;101320.00;5098973;27;45376;-53
2022/08/26 01:11:20;;;;;;;;;4.60;4.60;;;;;23.66;56.23;101315.22;5098643;27;45542;-53
2022/08/26 01:13:47;;;;;;;;;5.00;5.00;;;;;23.72;56.40;101333.34;5080225;27;46665;-53
2022/08/26 01:16:15;;;;;;;;;5.20;3.80;;;;;23.66;56.03;101320.66;5098848;27;45311;-55
2022/08/26 01:18:42;;;;;;;;;4.80;4.80;;;;;23.64;55.87;101323.56;5098608;27;45203;-52
2022/08/26 01:21:34;;;;;;;;;6.00;6.00;;;;;23.59;56.25;101323.38;5098771;27;45432;-55
2022/08/26 01:24:00;;;;;;;;;6.60;6.00;;;;;23.59;56.36;101320.66;5098205;27;46797;-53
2022/08/26 01:26:31;;;;;;;;;4.00;4.00;;;;;23.53;56.62;101316.09;5099074;27;45325;-55
2022/08/26 01:28:59;;;;;;;;;6.00;6.00;;;;;23.49;57.04;101319.47;5098682;27;45488;-55
2022/08/26 01:31:28;;;;;;;;;3.40;3.40;;;;;23.45;56.70;101323.69;5098526;27;45512;-53
2022/08/26 01:33:58;;;;;;;;;5.40;5.40;;;;;23.45;57.06;101321.78;5098067;27;46272;-54
2022/08/26 01:36:23;;;;;;;;;8.00;5.80;;;;;23.40;57.17;101324.34;5098285;27;45387;-54
2022/08/26 01:38:49;;;;;;;;;5.75;5.75;;;;;23.28;57.03;101326.91;5098251;27;45452;-52
2022/08/26 01:41:15;;;;;;;;;5.25;4.25;;;;;23.26;57.13;101320.88;5098428;27;45365;-54
2022/08/26 01:43:44;;;;;;;;;6.00;4.75;;;;;23.24;57.65;101327.53;5098012;27;46294;-54
2022/08/26 01:46:13;;;;;;;;;7.80;5.80;;;;;23.22;57.86;101321.47;5097534;27;45319;-54
2022/08/26 01:48:41;;;;;;;;;4.40;3.40;;;;;23.24;57.74;101338.41;5098129;27;45280;-54
2022/08/26 01:51:09;;;;;;;;;8.25;6.00;;;;;23.15;57.65;101316.09;5098352;27;45261;-54
2022/08/26 01:53:35;;;;;;;;;8.80;6.20;;;;;23.23;57.78;101337.56;5097350;27;46145;-55
2022/08/26 01:56:02;;;;;;;;;6.60;6.60;;;;;23.13;58.24;101313.63;5097588;27;45291;-55
2022/08/26 01:58:37;;;;;;;;;8.40;6.80;;;;;23.25;57.40;101330.03;5098075;27;45380;-54
2022/08/26 02:01:04;;;;;;;;;8.75;6.25;;;;;23.26;57.84;101330.84;5098334;27;45424;-55
2022/08/26 02:03:30;;;;;;;;;5.00;5.00;;;;;23.24;58.08;101328.38;5079279;27;45696;-55
2022/08/26 02:06:02;;;;;;;;;7.00;7.00;;;;;23.18;58.13;101326.53;5097835;27;45340;-53
2022/08/26 02:08:36;;;;;;;;;8.00;7.00;;;;;23.21;57.91;101336.13;5097931;27;45462;-53
2022/08/26 02:11:02;;;;;;;;;8.00;7.50;;;;;23.22;58.15;101343.19;5096768;27;45304;-55
2022/08/26 02:13:30;;;;;;;;;9.75;7.25;;;;;23.19;58.12;101344.47;5097933;27;46831;-54
2022/08/26 02:15:57;;;;;;;;;8.80;8.00;;;;;23.16;58.31;101345.72;5097967;27;45435;-54
2022/08/26 02:18:24;;;;;;;;;8.60;7.00;;;;;23.14;58.22;101353.28;5098051;27;45364;-54
2022/08/26 02:20:52;;;;;;;;;8.40;8.00;;;;;23.12;57.92;101349.09;5098284;27;45434;-55
2022/08/26 02:23:18;;;;;;;;;10.60;7.40;;;;;23.07;58.12;101341.59;5097478;27;46160;-54
2022/08/26 02:26:07;;;;;;;;;8.00;8.00;;;;;23.07;58.33;101343.47;5097381;27;45346;-54
2022/08/26 02:28:38;;;;;;;;;11.00;8.80;;;;;22.97;58.42;101335.81;5097450;27;45378;-54
2022/08/26 02:31:03;;;;;;;;;9.25;7.00;;;;;22.93;57.93;101322.88;5097840;27;45450;-54
2022/08/26 02:33:29;;;;;;;;;12.50;10.50;;;;;23.02;58.73;101348.72;5097289;27;46249;-55
2022/08/26 02:35:55;;;;;;;;;10.75;7.50;;;;;23.02;58.67;101351.44;5097384;27;45341;-54
2022/08/26 02:38:20;;;;;;;;;11.25;9.25;;;;;23.02;59.06;101349.56;5097462;27;45262;-53
2022/08/26 02:40:46;;;;;;;;;10.50;10.00;;;;;23.00;58.69;101354.34;5097425;27;45494;-55
2022/08/26 02:43:12;;;;;;;;;13.00;11.50;;;;;22.98;59.06;101358.34;5097360;27;46401;-54
2022/08/26 02:45:39;;;;;;;;;9.75;9.00;;;;;22.95;59.03;101347.91;5097226;27;45325;-54
2022/08/26 02:48:16;;;;;;;;;11.60;9.80;;;;;22.89;58.71;101347.69;5097176;27;45367;-54
2022/08/26 02:50:42;;;;;;;;;11.00;10.25;;;;;22.86;58.85;101352.69;5097603;27;45468;-53
2022/08/26 02:53:08;;;;;;;;;14.20;11.60;;;;;22.83;59.14;101344.97;5096890;27;46370;-55
2022/08/26 02:55:33;;;;;;;;;10.75;9.50;;;;;22.75;59.47;101350.63;5096110;27;45427;-54
2022/08/26 02:58:00;;;;;;;;;11.25;10.25;;;;;22.75;59.01;101350.63;5099104;27;45429;-55
2022/08/26 03:00:25;;;;;;;;;11.00;9.25;;;;;22.67;59.79;101347.13;5100962;27;45173;-54
2022/08/26 03:02:51;;;;;;;;;15.00;12.00;;;;;22.70;59.79;101350.44;5100665;27;46837;-55
2022/08/26 03:05:18;;;;;;;;;10.00;9.50;;;;;22.67;59.98;101349.00;5100824;27;45364;-54
2022/08/26 03:07:44;;;;;;;;;12.40;10.20;;;;;22.66;59.48;101350.03;5100691;27;45422;-54
2022/08/26 03:10:11;;;;;;;;;12.75;11.50;;;;;22.62;60.01;101355.03;5101181;27;45210;-53
2022/08/26 03:12:37;;;;;;;;;17.25;12.50;;;;;22.65;60.12;101354.63;5100269;27;45721;-53
2022/08/26 03:15:04;;;;;;;;;13.50;10.50;;;;;22.65;60.26;101357.34;5100410;27;45287;-54
2022/08/26 03:17:29;;;;;;;;;10.80;10.60;;;;;22.65;59.73;101346.50;5100918;27;45312;-54
2022/08/26 03:19:55;;;;;;;;;13.00;10.75;;;;;22.63;59.71;101353.19;5100802;27;45152;-53
2022/08/26 03:22:20;;;;;;;;;17.75;12.00;;;;;22.62;60.37;101349.63;5100405;27;46847;-54
2022/08/26 03:24:46;;;;;;;;;15.00;12.00;;;;;22.65;59.99;101345.66;5100190;27;45394;-54
2022/08/26 03:27:11;;;;;;;;;11.50;10.00;;;;;22.63;60.02;101343.16;5100513;27;45276;-55
2022/08/26 03:32:21;;;;;;;;;12.00;9.50;;;;;22.60;60.38;101348.19;5100280;27;45816;-54
2022/08/26 03:34:47;;;;;;;;;15.00;13.50;;;;;22.58;60.59;101356.50;5099862;27;45411;-54
2022/08/26 03:37:12;;;;;;;;;17.75;12.75;;;;;22.55;60.58;101353.41;5098750;27;45263;-54
2022/08/26 03:39:38;;;;;;;;;17.50;14.25;;;;;22.50;60.59;101345.03;5100275;27;45402;-54
2022/08/26 03:42:05;;;;;;;;;15.00;12.25;;;;;22.50;60.35;101351.34;5099267;27;46176;-55
2022/08/26 03:44:30;;;;;;;;;13.00;12.00;;;;;22.46;60.63;101344.66;5100104;27;45394;-54
2022/08/26 03:46:56;;;;;;;;;14.00;12.00;;;;;22.44;60.84;101345.91;5100401;27;45315;-54
2022/08/26 03:49:21;;;;;;;;;16.25;13.00;;;;;22.46;60.77;101349.22;5100858;27;45449;-56
2022/08/26 03:51:47;;;;;;;;;16.75;12.75;;;;;22.44;60.44;101345.91;5100847;27;46233;-56
2022/08/26 03:54:12;;;;;;;;;12.75;12.00;;;;;22.40;60.79;101337.34;5100490;27;45393;-53
2022/08/26 03:56:38;;;;;;;;;15.25;11.25;;;;;22.37;61.34;101335.88;5102192;27;45856;-55
2022/08/26 03:59:03;;;;;;;;;16.75;13.75;;;;;22.39;61.07;101341.94;5101373;27;45595;-54
2022/08/26 04:01:29;;;;;;;;;14.50;12.75;;;;;22.38;61.09;101344.88;5101383;27;46107;-54
2022/08/26 04:03:57;;;;;;;;;18.50;13.75;;;;;22.40;61.35;101345.50;5100685;27;45360;-54
2022/08/26 04:06:37;;;;;;;;;14.25;14.25;;;;;22.38;61.29;101344.88;5099870;27;45336;-52
2022/08/26 04:09:08;;;;;;;;;15.00;12.50;;;;;22.39;60.98;101350.06;5099642;27;45521;-56
2022/08/26 04:11:34;;;;;;;;;14.50;13.25;;;;;22.44;61.18;101357.56;5099275;27;47265;-54
2022/08/26 04:14:03;;;;;;;;;15.75;14.50;;;;;22.46;60.67;101349.22;5099454;27;45302;-53
2022/08/26 04:16:29;;;;;;;;;14.75;13.50;;;;;22.43;61.13;101345.06;5099756;27;45392;-54
2022/08/26 04:18:56;;;;;;;;;18.25;13.25;;;;;22.42;61.53;101352.38;5099732;27;45394;-54
2022/08/26 04:21:22;;;;;;;;;16.50;15.00;;;;;22.42;61.70;101352.38;5099328;27;45439;-54
2022/08/26 04:23:48;;;;;;;;;16.50;15.00;;;;;22.29;61.26;101327.13;5099394;27;45330;-52
2022/08/26 04:26:14;;;;;;;;;15.25;13.75;;;;;22.40;61.43;101350.91;5099242;27;45323;-53
2022/08/26 04:28:40;;;;;;;;;19.25;13.25;;;;;22.42;61.40;101351.56;5099552;27;45551;-55
2022/08/26 04:31:09;;;;;;;;;19.00;17.00;;;;;22.44;61.27;101348.63;5099088;27;45469;-54
2022/08/26 04:33:35;;;;;;;;;19.50;15.50;;;;;22.48;61.51;101353.41;5099169;27;45286;-53
2022/08/26 04:36:01;;;;;;;;;20.00;14.25;;;;;22.52;61.48;101359.25;5099179;27;45415;-53
2022/08/26 04:38:28;;;;;;;;;16.75;16.00;;;;;22.57;61.25;101364.88;5099037;27;45591;-54
2022/08/26 04:40:53;;;;;;;;;18.00;14.50;;;;;22.53;61.34;101356.31;5098657;27;45464;-52
2022/08/26 04:43:19;;;;;;;;;20.50;18.75;;;;;22.48;61.44;101356.13;5098919;27;45400;-54
2022/08/26 04:45:44;;;;;;;;;21.25;16.75;;;;;22.48;61.28;101360.72;5099166;27;45196;-53
2022/08/26 04:48:10;;;;;;;;;17.00;15.75;;;;;22.44;61.73;101349.44;5099456;27;45558;-54
2022/08/26 04:50:36;;;;;;;;;18.00;17.75;;;;;22.44;61.15;101354.88;5098869;27;45950;-53
2022/08/26 04:53:03;;;;;;;;;22.50;16.50;;;;;22.48;61.62;101363.41;5098732;27;45380;-56
2022/08/26 04:55:29;;;;;;;;;22.75;17.75;;;;;22.48;61.74;101368.84;5098957;27;45424;-54
2022/08/26 04:57:55;;;;;;;;;18.00;15.75;;;;;22.47;61.44;101373.44;5099053;27;45388;-54
2022/08/26 05:00:21;;;;;;;;;20.00;15.50;;;;;22.47;61.33;101370.72;5098786;27;45409;-55
2022/08/26 05:02:47;;;;;;;;;17.50;14.50;;;;;22.44;61.65;101367.59;5098748;27;45265;-55
2022/08/26 05:05:12;;;;;;;;;19.75;17.50;;;;;22.41;61.39;101372.38;5098780;27;45424;-51
2022/08/26 05:07:39;;;;;;;;;24.00;15.75;;;;;22.39;61.45;101370.94;5098747;27;45445;-55
2022/08/26 05:10:05;;;;;;;;;17.75;15.25;;;;;22.38;62.02;101374.69;5098449;27;46084;-53
2022/08/26 05:12:31;;;;;;;;;16.00;15.25;;;;;22.27;61.91;101361.75;5098407;27;45376;-54
2022/08/26 05:14:56;;;;;;;;;20.00;18.50;;;;;22.31;62.22;101376.56;5098609;27;45339;-54
2022/08/26 05:17:22;;;;;;;;;19.50;18.00;;;;;22.32;62.00;101380.94;5098639;27;45314;-54
2022/08/26 05:19:49;;;;;;;;;17.75;16.25;;;;;22.29;62.20;101376.78;5097516;27;45946;-55
2022/08/26 05:22:16;;;;;;;;;21.75;17.50;;;;;22.20;62.01;101361.75;5098300;27;45295;-53
2022/08/26 05:24:42;;;;;;;;;17.50;16.75;;;;;22.31;62.03;101387.41;5098676;27;45163;-54
2022/08/26 05:27:08;;;;;;;;;19.00;17.25;;;;;22.31;61.74;101385.53;5113606;27;45341;-53
2022/08/26 05:29:33;;;;;;;;;22.25;18.75;;;;;22.32;61.63;101394.50;5098028;27;47183;-53
2022/08/26 05:32:00;;;;;;;;;21.50;18.25;;;;;22.32;61.97;101389.91;5098289;27;45278;-53
2022/08/26 05:34:26;;;;;;;;;18.75;14.25;;;;;22.35;62.10;101400.34;5098239;27;45515;-53
2022/08/26 05:36:52;;;;;;;;;18.00;16.00;;;;;22.39;61.87;101395.34;5098386;27;45260;-52
2022/08/26 05:39:17;;;;;;;;;18.50;17.00;;;;;22.38;61.52;101388.25;5097725;27;45422;-53
2022/08/26 05:41:43;;;;;;;;;21.00;16.00;;;;;22.47;61.56;101405.13;5097754;27;45372;-53
2022/08/26 05:44:11;;;;;;;;;18.25;15.25;;;;;22.50;61.28;101407.41;5098180;27;45256;-54
2022/08/26 05:46:39;;;;;;;;;20.00;14.50;;;;;22.54;61.02;101406.78;5098124;27;45463;-54
2022/08/26 05:49:05;;;;;;;;;19.25;15.50;;;;;22.57;61.43;101411.78;5097736;27;46263;-53
2022/08/26 05:51:31;;;;;;;;;17.75;14.25;;;;;22.51;60.86;101400.97;5097977;27;45397;-56
2022/08/26 05:53:57;;;;;;;;;16.25;14.50;;;;;22.50;61.22;101410.97;5098007;27;45418;-52
2022/08/26 05:56:26;;;;;;;;;21.25;17.00;;;;;22.14;61.63;101355.28;5098498;27;45465;-52
2022/08/26 05:58:52;;;;;;;;;20.25;17.75;;;;;22.51;61.67;101414.53;5097506;27;45243;-54
2022/08/26 06:01:20;;;;;;;;;19.50;16.25;;;;;22.45;61.07;101413.47;5097610;27;45471;-54
2022/08/26 06:03:50;;;;;;;;;15.25;13.00;;;;;22.48;60.85;101421.19;5097763;27;45426;-55
2022/08/26 06:06:34;;;;;;;;;20.50;16.50;;;;;22.51;61.25;101411.81;5097798;27;45544;-53
2022/08/26 06:09:03;;;;;;;;;20.75;18.00;;;;;22.51;61.25;101411.81;5097517;27;46396;-53
2022/08/26 06:11:30;;;;;;;;;22.75;18.75;;;;;22.53;61.26;101415.97;5097618;27;45437;-53
2022/08/26 06:13:59;;;;;;;;;22.75;19.25;;;;;22.51;61.30;101414.53;5097592;27;45463;-54
2022/08/26 06:16:24;;;;;;;;;13.25;13.00;;;;;22.47;61.27;101410.56;5097692;27;45569;-53
2022/08/26 06:18:51;;;;;;;;;18.25;16.50;;;;;22.47;61.08;101413.28;5097534;27;46133;-53
2022/08/26 06:21:27;;;;;;;;;17.80;15.60;;;;;22.44;60.71;101416.38;5097508;27;45348;-53
2022/08/26 06:26:41;;;;;;;;;20.25;16.50;;;;;22.36;61.45;101412.84;5097697;27;45199;-52
2022/08/26 06:29:07;;;;;;;;;15.75;15.75;;;;;22.39;61.67;101419.72;5097202;27;46948;-53
2022/08/26 06:31:34;;;;;;;;;14.50;14.00;;;;;22.39;60.95;101408.88;5097150;27;45454;-54
2022/08/26 06:34:00;;;;;;;;;21.00;18.75;;;;;22.37;61.67;101410.94;5097440;27;45382;-50
2022/08/26 06:36:29;;;;;;;;;17.25;15.50;;;;;22.39;61.20;101417.03;5097487;27;45396;-54
2022/08/26 06:38:59;;;;;;;;;18.75;14.50;;;;;22.36;61.03;101426.38;5096930;27;45974;-54
2022/08/26 06:41:24;;;;;;;;;15.75;13.75;;;;;22.36;61.10;101414.72;5097102;27;45437;-54
2022/08/26 06:43:50;;;;;;;;;15.50;15.00;;;;;22.33;61.11;101413.28;5097423;27;45478;-54
2022/08/26 06:46:20;;;;;;;;;17.50;15.75;;;;;22.33;61.04;101418.69;5097584;27;45466;-54
2022/08/26 06:48:46;;;;;;;;;19.00;15.25;;;;;22.33;60.83;101421.41;5097107;27;46926;-53
2022/08/26 06:51:13;;;;;;;;;15.75;13.50;;;;;22.35;60.93;101416.59;5097211;27;45454;-54
2022/08/26 06:53:40;;;;;;;;;13.50;12.75;;;;;22.42;60.86;101412.03;5097367;27;45372;-54
2022/08/26 06:56:08;;;;;;;;;18.25;15.50;;;;;22.56;59.94;101399.28;5097008;27;45371;-53
2022/08/26 06:58:36;;;;;;;;;16.50;13.25;;;;;22.99;59.34;101416.97;5096757;27;46775;-54
2022/08/26 07:01:02;;;;;;;;;15.40;15.00;;;;;23.27;58.55;101416.69;5096898;27;45223;-53
2022/08/26 07:03:28;;;;;;;;;11.00;11.00;;;;;23.48;57.93;101413.69;5097474;27;45334;-53
2022/08/26 07:06:00;;;;;;;;;16.75;13.00;;;;;23.62;57.60;101419.88;5097255;27;45414;-53
2022/08/26 07:08:25;;;;;;;;;16.50;14.00;;;;;23.68;57.57;101423.63;5096740;27;46989;-51
2022/08/26 07:10:51;;;;;;;;;15.75;11.75;;;;;23.74;57.57;101414.63;5096870;27;45402;-54
2022/08/26 07:13:17;;;;;;;;;16.50;13.75;;;;;23.79;56.84;101412.09;5096807;27;45373;-53
2022/08/26 07:15:43;;;;;;;;;13.75;13.50;;;;;23.75;56.99;101411.69;5097036;27;45333;-52
2022/08/26 07:18:08;;;;;;;;;13.25;10.75;;;;;23.73;57.02;101407.53;5096744;27;46461;-52
2022/08/26 07:20:41;;;;;;;;;16.00;13.00;;;;;24.00;56.41;101416.34;5096705;27;45239;-54
2022/08/26 07:23:08;;;;;;;;;13.60;12.00;;;;;24.01;56.31;101418.84;5097000;27;45382;-53
2022/08/26 07:25:37;;;;;;;;;15.50;12.50;;;;;24.06;56.15;101415.47;5097091;27;45377;-53
2022/08/26 07:28:02;;;;;;;;;16.60;12.00;;;;;24.08;56.11;101416.09;5096556;27;46299;-51
2022/08/26 07:30:28;;;;;;;;;14.75;13.25;;;;;24.13;55.55;101417.09;5096736;27;45354;-53
2022/08/26 07:32:56;;;;;;;;;15.25;14.50;;;;;24.21;55.57;101426.03;5096579;27;45683;-53
2022/08/26 07:35:21;;;;;;;;;15.25;13.00;;;;;24.28;54.88;101424.13;5096926;27;45412;-51
2022/08/26 07:37:46;;;;;;;;;12.75;12.00;;;;;24.29;54.69;101431.22;5096260;27;45316;-53
2022/08/26 07:40:12;;;;;;;;;12.25;11.00;;;;;24.29;54.72;101431.22;5095255;27;45289;-51
2022/08/26 07:42:37;;;;;;;;;13.75;11.25;;;;;24.28;54.89;101429.56;5096538;27;45450;-50
2022/08/26 07:45:03;;;;;;;;;17.00;14.25;;;;;24.52;54.52;101423.28;5099936;27;45383;-53
2022/08/26 07:47:29;;;;;;;;;15.00;13.60;;;;;24.75;53.61;101430.84;5099868;27;46247;-54
2022/08/26 07:49:56;;;;;;;;;11.25;11.25;;;;;24.73;53.51;101405.72;5099940;27;45434;-52
2022/08/26 07:52:21;;;;;;;;;11.60;9.60;;;;;25.05;52.55;101422.78;5099833;27;45323;-53
2022/08/26 07:54:46;;;;;;;;;11.00;10.75;;;;;25.14;52.21;101426.06;5100115;27;45180;-53
2022/08/26 07:57:12;;;;;;;;;12.50;10.25;;;;;25.12;52.41;101415.41;5099713;27;46250;-54
2022/08/26 07:59:37;;;;;;;;;13.25;11.25;;;;;25.01;52.08;101420.75;5099792;27;45399;-52
2022/08/26 08:02:03;;;;;;;;;10.00;9.75;;;;;24.93;52.21;101421.88;5081614;27;45348;-51
2022/08/26 08:04:28;;;;;;;;;9.25;7.25;;;;;24.99;51.78;101423.69;5100041;27;45317;-52
2022/08/26 08:06:54;;;;;;;;;12.75;11.00;;;;;25.45;51.65;101424.22;5099722;27;46069;-51
2022/08/26 08:09:19;;;;;;;;;11.75;8.25;;;;;25.53;51.42;101421.19;5099642;27;45314;-52
2022/08/26 08:11:45;;;;;;;;;17.50;10.00;;;;;25.56;50.81;101429.75;5099927;27;45294;-53
2022/08/26 08:14:11;;;;;;;;;12.50;9.00;;;;;25.74;50.09;101425.31;5099750;27;45464;-49
2022/08/26 08:16:36;;;;;;;;;10.80;8.80;;;;;26.04;50.04;101428.06;5099204;27;47260;-53
2022/08/26 08:19:02;;;;;;;;;11.00;11.00;;;;;26.16;49.26;101423.47;5099495;27;45301;-53
2022/08/26 08:21:28;;;;;;;;;12.50;11.00;;;;;26.58;48.72;101428.91;5099641;27;45502;-53
2022/08/26 08:23:55;;;;;;;;;15.00;11.00;;;;;26.73;47.77;101420.25;5099734;27;45418;-54
2022/08/26 08:26:22;;;;;;;;;14.60;10.20;;;;;26.89;47.79;101427.72;5099260;27;45457;-54
2022/08/26 08:28:48;;;;;;;;;12.80;10.20;;;;;26.96;47.81;101425.69;5099034;27;45334;-53
2022/08/26 08:31:19;;;;;;;;;11.25;10.00;;;;;27.06;47.30;101425.09;5099524;27;45251;-53
2022/08/26 08:33:44;;;;;;;;;9.80;9.20;;;;;27.09;47.00;101424.59;5099465;27;45548;-55
2022/08/26 08:36:13;;;;;;;;;10.50;8.00;;;;;27.65;46.06;101403.13;5099178;27;45434;-55
2022/08/26 08:38:39;;;;;;;;;9.80;7.40;;;;;28.64;44.89;101419.91;5096969;27;45241;-53
2022/08/26 08:41:04;;;;;;;;;11.50;9.75;;;;;29.39;44.13;101412.19;5098775;27;45452;-55
2022/08/26 08:43:39;;;;;;;;;10.75;8.00;;;;;29.42;42.52;101408.94;5098969;27;45482;-54
2022/08/26 08:46:13;;;;;;;;;9.60;7.60;;;;;29.18;42.61;101409.19;5099069;27;46210;-53
2022/08/26 08:48:46;;;;;;;;;10.80;8.80;;;;;29.28;43.82;101406.56;5099072;27;45362;-53
2022/08/26 08:51:42;;;;;;;;;9.00;7.40;;;;;32.13;38.30;101412.34;5099083;27;45300;-53
2022/08/26 08:54:07;;;;;;;;;10.00;7.80;;;;;32.14;38.01;101418.66;5097112;27;45554;-54
2022/08/26 08:56:41;;;;;;;;;8.75;8.75;;;;;33.23;36.71;101416.31;5097939;27;45960;-54
2022/08/26 08:59:23;;;;;;;;;9.00;8.80;;;;;33.65;35.20;101412.25;5098737;27;45424;-53
2022/08/26 09:02:01;;;;;;;;;8.40;8.40;;;;;33.65;35.64;101407.56;5080501;27;45357;-52
2022/08/26 09:04:33;;;;;;;;;7.80;7.20;;;;;33.01;36.37;101414.75;5099054;27;45511;-53
2022/08/26 09:07:01;;;;;;;;;10.80;9.80;;;;;32.18;36.25;101408.75;5098589;27;45519;-55
2022/08/26 09:09:39;;;;;;;;;10.80;8.40;;;;;31.67;37.62;101404.00;5097599;27;45970;-53
2022/08/26 09:12:13;;;;;;;;;10.00;8.80;;;;;30.92;39.02;101411.66;5098778;27;45355;-54
2022/08/26 09:14:39;;;;;;;;;11.00;8.80;;;;;30.17;39.04;101410.00;5098700;27;45418;-54
2022/08/26 09:17:20;;;;;;;;;9.25;8.75;;;;;29.45;41.41;101416.63;5098767;27;47280;-54
2022/08/26 09:19:52;;;;;;;;;10.80;7.20;;;;;29.18;41.25;101419.31;5098578;27;45330;-54
2022/08/26 09:22:35;;;;;;;;;7.60;7.60;;;;;30.81;39.03;101418.22;5098650;27;45446;-55
2022/08/26 09:25:03;;;;;;;;;8.00;8.00;;;;;31.42;37.56;101414.94;5098811;27;45404;-54
2022/08/26 09:27:44;;;;;;;;;10.40;8.80;;;;;31.05;37.50;101402.09;5098517;27;45709;-53
2022/08/26 09:30:14;;;;;;;;;10.40;9.00;;;;;30.60;38.37;101402.66;5098577;27;45405;-53
2022/08/26 09:32:40;;;;;;;;;10.40;7.40;;;;;32.90;34.87;101395.72;5098506;27;45276;-54
2022/08/26 09:35:26;;;;;;;;;7.75;7.00;;;;;34.87;33.45;101404.88;5098610;27;45322;-54
2022/08/26 09:37:52;;;;;;;;;9.40;9.20;;;;;34.35;32.39;101401.00;5097691;27;46398;-55
2022/08/26 09:40:21;;;;;;;;;8.75;8.75;;;;;33.14;34.14;101402.28;5098389;27;45385;-54
2022/08/26 09:42:46;;;;;;;;;8.20;7.00;;;;;32.07;36.13;101393.34;5098429;27;45333;-55
2022/08/26 09:45:12;;;;;;;;;9.00;9.00;;;;;31.10;37.98;101404.03;5098478;27;45380;-54
2022/08/26 09:47:51;;;;;;;;;8.00;6.75;;;;;30.22;39.10;101408.16;5098093;27;45492;-55
2022/08/26 09:50:53;;;;;;;;;10.20;8.40;;;;;29.47;39.76;101404.31;5098080;27;45268;-55
2022/08/26 09:53:26;;;;;;;;;8.00;8.00;;;;;28.95;40.73;101403.91;5035055;28;45554;-54
2022/08/26 09:56:22;;;;;;;;;8.20;7.80;;;;;28.58;41.52;101416.25;5035279;28;45509;-55
2022/08/26 09:58:48;;;;;;;;;10.00;8.20;;;;;28.49;41.11;101412.28;5017957;28;46340;-54
2022/08/26 10:01:35;;;;;;;;;7.40;7.40;;;;;28.49;41.85;101408.72;5034862;28;45349;-53
2022/08/26 10:04:13;;;;;;;;;8.40;7.40;;;;;30.00;39.15;101399.97;5034985;28;45465;-55
2022/08/26 10:07:00;;;;;;;;;9.20;7.60;;;;;30.17;39.15;101397.13;5034766;28;45277;-54
2022/08/26 10:09:32;;;;;;;;;15.00;10.60;;;;;31.59;36.79;101398.22;5034619;28;46342;-54
2022/08/26 10:12:05;;;;;;;;;8.20;7.60;;;;;31.18;37.08;101398.03;5034655;28;45531;-54
2022/08/26 10:14:39;;;;;;;;;7.60;7.60;;;;;30.50;38.12;101401.47;5034726;28;45428;-55
2022/08/26 10:17:25;;;;;;;;;8.20;7.20;;;;;29.87;38.90;101403.13;5034945;28;45419;-54
2022/08/26 10:19:55;;;;;;;;;14.00;11.80;;;;;29.49;39.38;101402.13;5034022;28;45503;-55
2022/08/26 10:22:51;;;;;;;;;10.60;7.60;;;;;29.18;40.58;101405.63;5034572;28;45426;-54
2022/08/26 10:25:22;;;;;;;;;11.00;8.80;;;;;29.20;40.35;101397.94;5034915;28;45463;-56
2022/08/26 10:28:17;;;;;;;;;8.20;8.20;;;;;30.37;38.20;101399.19;5039270;27;45294;-55
2022/08/26 10:30:51;;;;;;;;;13.60;6.20;;;;;33.32;33.74;101391.72;5093221;27;45449;-57
2022/08/26 10:33:17;;;;;;;;;5.40;5.40;;;;;36.00;30.45;101388.44;5097582;27;45243;-53
2022/08/26 10:35:57;;;;;;;;;4.75;4.00;;;;;38.22;27.59;101379.59;5097539;27;45347;-56
2022/08/26 10:38:33;;;;;;;;;7.60;7.60;;;;;38.02;27.59;101378.19;5097577;27;45481;-54
2022/08/26 10:41:10;;;;;;;;;7.00;7.00;;;;;36.59;28.14;101386.03;5097195;27;47066;-54
2022/08/26 10:43:43;;;;;;;;;5.00;4.40;;;;;35.56;29.40;101384.09;5097322;27;45341;-54
2022/08/26 10:46:15;;;;;;;;;4.60;4.20;;;;;37.71;27.73;101378.09;5097220;27;45503;-53
2022/08/26 10:48:52;;;;;;;;;5.80;3.80;;;;;38.80;26.83;101377.81;5097613;27;45248;-55
2022/08/26 10:51:23;;;;;;;;;9.40;6.00;;;;;39.35;26.65;101377.28;5097146;27;47159;-55
2022/08/26 10:54:01;;;;;;;;;5.80;5.20;;;;;41.24;23.53;101376.31;5078982;27;45299;-54
2022/08/26 10:56:40;;;;;;;;;6.20;4.80;;;;;43.04;22.36;101377.56;5097099;27;45412;-55
2022/08/26 10:59:21;;;;;;;;;6.20;5.00;;;;;44.44;20.58;101370.31;5097389;27;45448;-55
2022/08/26 11:02:13;;;;;;;;;9.80;6.40;;;;;44.01;21.12;101367.19;5096982;27;46254;-55
2022/08/26 11:04:48;;;;;;;;;6.20;5.80;;;;;45.20;20.11;101368.16;5096512;27;45314;-55
2022/08/26 11:07:40;;;;;;;;;5.40;5.40;;;;;45.55;19.31;101370.91;5097073;27;45277;-55
2022/08/26 11:10:34;;;;;;;;;6.60;5.60;;;;;46.32;17.91;101361.56;5097450;27;45336;-55
2022/08/26 11:13:02;;;;;;;;;8.00;5.80;;;;;46.61;18.28;101365.66;5096765;27;46100;-55
2022/08/26 11:15:28;;;;;;;;;6.40;5.60;;;;;47.23;17.59;101370.97;5096753;27;45343;-55
2022/08/26 11:18:06;;;;;;;;;6.00;5.00;;;;;47.36;18.08;101360.31;5096966;27;45345;-56
2022/08/26 11:20:44;;;;;;;;;5.80;4.00;;;;;47.66;16.51;101365.88;5100689;27;45215;-56
2022/08/26 11:23:12;;;;;;;;;7.80;6.20;;;;;46.55;17.08;101369.94;5099694;27;45373;-55
2022/08/26 11:26:08;;;;;;;;;4.00;4.00;;;;;46.90;17.11;101361.25;5100394;27;45354;-55
2022/08/26 11:28:40;;;;;;;;;5.00;5.00;;;;;46.24;17.96;101357.00;5100425;27;45421;-54
2022/08/26 11:31:17;;;;;;;;;5.00;4.80;;;;;46.59;16.25;101361.59;5100324;27;45579;-54